x

Western Caribbean - 195 Nm Wsw Of Negril Jamiaca (42057) Wave Buoy

4:50 - Wed 10th Feb 2016 All times are UTC.

  • Sig Wave height 5.9ft
  • Swell Direction
  • Peak Period 6s
  • Average Period 5s
  • Wind
    22mph, 27mph gusts
  • Sea Temp 81°f
  • Luft Temp 78°f
  • Sea Pressure 1018.7mb

More Historic Weather Station data

Upgrade to MSW Pro to gain access to the past 30 days of data for over 8000 Wavebouys and Weather Stations around the globe.

Join Pro

Comparision Forecast

View Surf forecast
   
Mi 02/10 4:50 6ft 6s 5s 22 27 mph 1018.7mb 81f 78f
3:50 5.5ft 6s 5s 22 27 mph 1019.1mb 81f 78f
2:50 6ft 6s 5s 22 25 mph 1019.3mb 81f 78f
1:50 6ft 6s 5s 22 27 mph 1018.9mb 81f 78f
12:50 6.5ft 6s 5s 20 25 mph 1018.2mb 81f 78f
Di 02/09 11:50 6ft 6s 5s 22 27 mph 1017.6mb 81f 78f
10:50 6ft 6s 5s 22 27 mph 1017mb 81f 78f
9:50 5.5ft 6s 5s 20 25 mph 1016.6mb 81f 78f
8:50 6.5ft 6s 5s 20 25 mph 1016.7mb 81f 77f
7:50 7ft 6s 6s 22 27 mph 1016.8mb 81f 77f
6:50 6ft 6s 5s 22 29 mph 1017.4mb 81f 77f
5:50 6ft 6s 5s 25 29 mph 1018.2mb 81f 77f
4:50 6ft 6s 5s 22 27 mph 1019.2mb 81f 77f
3:50 6ft 6s 5s 22 27 mph 1019.9mb 81f 77f
2:50 6ft 7s 5s 20 25 mph 1019.8mb 81f 77f
1:50 6.5ft 7s 6s 22 27 mph 1019.4mb 81f 77f
12:50 6ft 7s 6s 22 25 mph 1018.4mb 81f 77f
11:50 6ft 7s 5s 20 25 mph 1017.7mb 81f 77f
10:50 7ft 7s 6s 22 29 mph 1017.2mb 81f 77f
9:50 7ft 6s 6s 22 27 mph 1016.6mb 81f 77f
8:50 7.5ft 7s 6s 25 31 mph 1016.1mb 81f 77f
7:50 8.5ft 7s 6s 25 29 mph 1016.1mb 81f 77f
6:50 8ft 7s 6s 25 27 mph 1016.4mb 81f 77f
5:50 8ft 7s 6s 25 27 mph 1016.8mb 81f 77f
4:50 7.5ft 7s 6s 25 27 mph 1016.9mb 81f 78f
3:50 7.5ft 7s 6s 27 31 mph 1016.6mb 82f 78f
2:50 7.5ft 7s 6s 25 29 mph 1016.3mb 82f 78f
1:50 7ft 6s 6s 25 29 mph 1016mb 82f 78f
12:50 7ft 7s 6s 25 29 mph 1015.3mb 82f 78f
Mo 02/08 11:50 7ft 7s 5s 25 29 mph 1014.6mb 82f 78f
10:50 7ft 8s 6s 22 27 mph 1014.4mb 82f 78f
9:50 7ft 8s 6s 22 27 mph 1014mb 82f 78f
8:50 7ft 8s 6s 20 25 mph 1013.8mb 82f 79f
7:50 6ft 8s 6s 22 27 mph 1013.9mb 82f 79f
6:50 6ft 8s 6s 20 25 mph 1014.7mb 82f 79f
5:50 7ft 8s 6s 16 22 mph 1015.6mb 82f 79f
4:50 6ft 8s 6s 16 20 mph 1016.2mb 82f 79f
3:50 6.5ft 8s 6s 13 16 mph 1017mb 82f 79f
2:50 6.5ft 8s 6s 13 16 mph 1017mb 82f 79f
1:50 7ft 8s 7s 16 20 mph 1016.3mb 81f 79f
12:50 7ft 8s 6s 16 18 mph 1015.8mb 81f 79f
11:50 7ft 8s 6s 16 20 mph 1015.3mb 81f 78f
10:50 6.5ft 9s 6s 16 18 mph 1014.8mb 81f 78f
9:50 6.5ft 8s 6s 16 20 mph 1014.5mb 81f 78f
8:50 7ft 8s 6s 16 18 mph 1014.6mb 81f 79f
7:50 6.5ft 8s 6s 18 20 mph 1015mb 81f 79f
6:50 6.5ft 8s 6s 18 20 mph 1015.4mb 81f 79f
5:50 6.5ft 8s 6s 18 22 mph 1016.1mb 82f 79f
4:50 7ft 8s 6s 18 20 mph 1016.4mb 82f 79f
3:50 6ft 8s 6s 18 22 mph 1016.6mb 82f 78f
2:50 5ft 5s 5s 18 22 mph 1016.5mb 82f 78f
1:50 4.5ft 5s 5s 18 22 mph 1016mb 82f 78f
12:50 3.5ft 7s 5s 20 25 mph 1015.1mb 82f 78f
So 02/07 11:50 3.5ft 7s 5s 16 20 mph 1014.6mb 82f 79f
10:50 3.5ft 7s 5s 18 22 mph 1014.1mb 82f 78f
9:50 3ft 6s 5s 13
mph
1014mb 82f 80f
8:50 3.5ft 7s 6s 11 16 mph 1013.9mb 82f 80f
7:50 3.5ft 7s 6s 11 13 mph 1014.4mb 82f 80f
6:50 3.5ft 7s 6s 9 11 mph 1015.2mb 82f 80f
5:50 3.5ft 7s 6s 7 9 mph 1016mb 82f 80f
4:50 3.5ft 11s 6s 7 9 mph 1016.6mb 82f 80f
3:50 3.5ft 10s 6s 7 9 mph 1017.1mb 82f 80f
2:50 3.5ft 6s 6s 7
mph
1016.8mb 82f 80f
1:50 3.5ft 10s 6s 7
mph
1016.3mb 81f 80f
12:50 3.5ft 6s 6s 4 7 mph 1015.8mb 81f 80f
11:50 3.5ft 6s 6s 4 7 mph 1015.3mb 81f 79f
10:50 3.5ft 7s 6s 4 7 mph 1014.8mb 81f 79f
9:50 3.5ft 11s 6s 7
mph
1014.6mb 81f 79f
8:50 3.5ft 7s 6s 7 9 mph 1014.6mb 81f 80f
7:50 3.5ft 11s 6s 7 9 mph 1014.8mb 81f 80f
6:50 4.5ft 6s 6s 7 11 mph 1015.1mb 81f 80f
5:50 4ft 11s 6s 9 11 mph 1015.6mb 81f 80f
4:50 3.5ft 8s 6s 9 11 mph 1016.1mb 81f 81f
3:50 4.5ft 11s 6s 11 13 mph 1016.2mb 81f 81f
2:50 4.5ft 6s 6s 11 13 mph 1016.1mb 81f 81f
1:50 4.5ft 7s 6s 11 13 mph 1015.8mb 81f 81f
12:50 4.5ft 8s 6s 11
mph
1015.5mb 81f 81f
Sa 02/06 11:50 4.5ft 8s 6s 9 11 mph 1015mb 81f 81f
10:50 4.5ft 7s 6s 9
mph
1014.8mb 82f 81f
9:50 4.5ft 8s 6s 11
mph
1014.4mb 82f 81f
8:50 5ft 7s 6s 11 13 mph 1014.1mb 82f 81f
7:50 4.5ft 8s 5s 11 13 mph 1014.2mb 82f 81f
6:50 5ft 8s 6s 16 18 mph 1014.9mb 82f 82f
5:50 4.5ft 8s 6s 13 18 mph 1015.6mb 82f 82f
4:50 4.5ft 8s 6s 13 16 mph 1016.2mb 82f 81f
3:50 4.5ft 8s 6s 11 13 mph 1016.7mb 82f 81f
2:50 5ft 9s 6s 13 16 mph 1016.4mb 81f 81f
1:50 4.5ft 11s 6s 13 16 mph 1015.5mb 81f 80f
12:50 3.5ft 11s 5s 9 11 mph 1014.9mb 81f 80f
11:50 3.5ft 5s 5s 11 13 mph 1014.3mb 81f 80f
10:50 3.5ft 11s 5s 13 16 mph 1013.9mb 81f 80f
9:50 4ft 11s 5s 13 18 mph 1013.7mb 81f 80f
8:50 4.5ft 11s 5s 11 18 mph 1013.7mb 81f 80f
7:50 4.5ft 5s 5s 13 16 mph 1013.9mb 81f 80f
6:50 4.5ft 8s 5s 16 20 mph 1014.4mb 81f 80f
5:50 4ft 5s 5s 16 20 mph 1015mb 81f 80f